Bennington, KS

10:03 PM CDT on August 30, 2016 (GMT -0500)
Chappy's Woodshed | | Change Station
Active Advisory: Flash Flood Watch

Elev 1217 ft 38.87 °N, 97.53 °W | Updated 14 seconds ago

Light Rain
Light Rain
71.6 °F
Feels Like 71.6 °F
N
0.0
Wind Variable Wind from North
Gusts 0.0 mph

Today
High -- | Low -- °F
--% Chance of Precip.
Yesterday
High -- | Low -- °F
Precip. -- in
Pressure 30.12 in
Visibility 10.0 miles
Clouds Few 11000 ft
Dew Point 71 °F
Humidity 97%
Rainfall 0.58 in
Snow Depth Not available.
6:57 AM 8:03 PM
Waning Crescent, 2% visible
METAR KSLN 310253Z 33004KT 10SM -RA FEW110 23/22 A3015 RMK AO2 RAB08 SLP197 P0000 60000 T02330217 50006
Pressure 30.12 in
Visibility 10.0 miles
Clouds Few 11000 ft
Dew Point 71 °F
Humidity 97%
Rainfall 0.58 in
Snow Depth Not available.
6:57 AM 8:03 PM
Waning Crescent, 2% visible
METAR KSLN 310253Z 33004KT 10SM -RA FEW110 23/22 A3015 RMK AO2 RAB08 SLP197 P0000 60000 T02330217 50006

10-Day Weather Forecast

Almanac

Astronomy

Aug. 30, 2016 Rise Set
Actual Time
Civil Twilight
Nautical Twilight
Astronomical Twilight
Moon
Length of Visible Light
Length of Day
Tomorrow will be .
, % of the Moon is Illuminated

Today's Extremes

State Highs State Lows

Community

WunderPhotos

Upload Photos

1,936,006 photos uploaded!

WunderBlog® & News

Nearby

Air Quality

  Air Quality AQ Index Pollutant
Not available.

Snow Depth

Station Depth Elevation

Earthquake Activity

City Distance Mag. Time & Date
Minimum magnitude displayed is 2.5.

Coastal Water Temperatures

Place Temperature

Stations

Nearby Weather Stations

Station Location Temp. Windchill Dew Point Humidity Wind Precip. Elev Updated Type
                   

Watches & Warnings

Flash Flood Watch
Issued: 3:23 PM CDT Aug. 30, 2016 – National Weather Service

... Flash Flood Watch now in effect until midnight CDT tonight...

The Flash Flood Watch is now in effect for

* portions of north central Kansas and northeast Kansas...
including the following areas... in north central Kansas...
Clay... cloud... Ottawa... Republic and Washington. In northeast
Kansas... Marshall... Pottawatomie and Riley.

* Until midnight CDT tonight

* scattered thunderstorms are expected through tonight. The
heaviest storms will produce rainfall rates up to 2 inches per
hour. Flash flooding may develop in areas where these storms
persist for multiple hours, which will be possible due to slow
storm motion. Areas that have received heavy rain over the past
two days will be especially susceptible to flash flooding.

Precautionary/preparedness actions...

A Flash Flood Watch means that conditions may develop that lead
to flash flooding. Flash flooding is a very dangerous situation.

You should monitor later forecasts and be prepared to take action
should flash flood warnings be issued.